Archival Weather

Heathrow

London, United Kingdom (EGLL)

Report from: Thursday, September 21, 2023 12:20 AM BST
Current time: Sunday, July 14, 2024 11:52 AM BST

Current weather – Weather history – Daily summaries
Weather forecast

Temperature14.0°C (57.2°F)
Dew point12.0°C (53.6°F)
Winds 9 kts (4.6 m/s, 10.4 mph) West-Southwest (240°)
Visibility6.2 mi. (10 km)
Clouds Sky clear
Altimeter29.41 in.Hg (996 mB)
Relative humidity88 %
Density altitude666 ft. (203 m)
Remarks Fully automated report
No clouds detected
Flight conditions Visual Meteorological Conditions
Raw dataEGLL 202320Z AUTO 24009KT 9999 NCD 14/12 Q0996
An error has occurred. This application may no longer respond until reloaded. Reload 🗙